Aviation Digital Data Service (ADDS)

Output produced by TAFs form (0328 UTC 22 December 2014)
found at http://www.aviationweather.gov/adds/tafs/
 
KMRB 212334Z 2200/2224 00000KT P6SM SKC 
     FM220900 00000KT P6SM BKN050 
     FM222000 VRB03KT P6SM -RA OVC030 
     FM222300 VRB03KT P6SM -FZRA OVC020